sensor_id;sensor_type;location;lat;lon;timestamp;pressure;altitude;pressure_sealevel;temperature;humidity
10946;BME280;5525;42.648;23.368;2022-09-09T00:01:46;94850.91;;;17.29;100.00
10946;BME280;5525;42.648;23.368;2022-09-09T00:04:21;94879.56;;;17.57;100.00
10946;BME280;5525;42.648;23.368;2022-09-09T00:06:59;94794.59;;;17.21;100.00
10946;BME280;5525;42.648;23.368;2022-09-09T00:09:29;94829.22;;;17.36;100.00
10946;BME280;5525;42.648;23.368;2022-09-09T00:12:01;94867.47;;;17.39;100.00
10946;BME280;5525;42.648;23.368;2022-09-09T00:14:35;94834.84;;;16.85;100.00
10946;BME280;5525;42.648;23.368;2022-09-09T00:17:09;94883.31;;;17.11;100.00
10946;BME280;5525;42.648;23.368;2022-09-09T00:19:41;94843.69;;;16.98;100.00
10946;BME280;5525;42.648;23.368;2022-09-09T00:22:15;94878.34;;;17.17;100.00
10946;BME280;5525;42.648;23.368;2022-09-09T00:24:44;94872.69;;;17.06;100.00
10946;BME280;5525;42.648;23.368;2022-09-09T00:27:19;94830.03;;;16.60;100.00
10946;BME280;5525;42.648;23.368;2022-09-09T00:29:53;94860.63;;;16.88;100.00
10946;BME280;5525;42.648;23.368;2022-09-09T00:32:28;94785.75;;;16.47;100.00
10946;BME280;5525;42.648;23.368;2022-09-09T00:34:59;94828.59;;;16.66;100.00
10946;BME280;5525;42.648;23.368;2022-09-09T00:37:28;94855.38;;;16.79;100.00
10946;BME280;5525;42.648;23.368;2022-09-09T00:39:59;94788.56;;;16.51;100.00
10946;BME280;5525;42.648;23.368;2022-09-09T00:42:36;94781.09;;;16.48;100.00
10946;BME280;5525;42.648;23.368;2022-09-09T00:45:17;94840.72;;;16.68;100.00
10946;BME280;5525;42.648;23.368;2022-09-09T00:47:50;94757.72;;;16.12;100.00
10946;BME280;5525;42.648;23.368;2022-09-09T00:50:32;94823.06;;;16.62;100.00
10946;BME280;5525;42.648;23.368;2022-09-09T00:53:19;94833.56;;;16.79;100.00
10946;BME280;5525;42.648;23.368;2022-09-09T00:55:56;94844.34;;;16.72;100.00
10946;BME280;5525;42.648;23.368;2022-09-09T00:58:26;94837.63;;;16.70;100.00
10946;BME280;5525;42.648;23.368;2022-09-09T01:00:57;94832.91;;;16.67;100.00
10946;BME280;5525;42.648;23.368;2022-09-09T01:03:34;94833.91;;;16.59;100.00
10946;BME280;5525;42.648;23.368;2022-09-09T01:06:13;94829.75;;;16.65;100.00
10946;BME280;5525;42.648;23.368;2022-09-09T01:08:55;94831.03;;;16.90;100.00
10946;BME280;5525;42.648;23.368;2022-09-09T01:11:26;94821.50;;;17.00;100.00
10946;BME280;5525;42.648;23.368;2022-09-09T01:14:11;94793.72;;;16.75;100.00
10946;BME280;5525;42.648;23.368;2022-09-09T01:16:42;94784.81;;;16.78;100.00
10946;BME280;5525;42.648;23.368;2022-09-09T01:19:18;94834.34;;;17.18;100.00
10946;BME280;5525;42.648;23.368;2022-09-09T01:21:49;94771.91;;;16.75;100.00
10946;BME280;5525;42.648;23.368;2022-09-09T01:24:24;94805.22;;;16.84;100.00
10946;BME280;5525;42.648;23.368;2022-09-09T01:26:56;94838.59;;;16.97;100.00
10946;BME280;5525;42.648;23.368;2022-09-09T01:29:25;94812.25;;;16.66;100.00
10946;BME280;5525;42.648;23.368;2022-09-09T01:31:54;94832.34;;;16.96;100.00
10946;BME280;5525;42.648;23.368;2022-09-09T01:34:23;94739.97;;;16.37;100.00
10946;BME280;5525;42.648;23.368;2022-09-09T01:36:57;94782.88;;;16.59;100.00
10946;BME280;5525;42.648;23.368;2022-09-09T01:39:25;94764.66;;;16.44;100.00
10946;BME280;5525;42.648;23.368;2022-09-09T01:41:53;94856.94;;;16.61;100.00
10946;BME280;5525;42.648;23.368;2022-09-09T01:44:24;94817.63;;;16.28;100.00
10946;BME280;5525;42.648;23.368;2022-09-09T01:46:52;94833.09;;;16.24;100.00
10946;BME280;5525;42.648;23.368;2022-09-09T01:49:19;94853.16;;;16.16;100.00
10946;BME280;5525;42.648;23.368;2022-09-09T01:51:49;94822.06;;;16.01;100.00
10946;BME280;5525;42.648;23.368;2022-09-09T01:54:17;94863.03;;;16.39;100.00
10946;BME280;5525;42.648;23.368;2022-09-09T01:56:51;94864.09;;;16.35;100.00
10946;BME280;5525;42.648;23.368;2022-09-09T01:59:45;94872.19;;;16.47;100.00
10946;BME280;5525;42.648;23.368;2022-09-09T02:02:18;94832.84;;;16.13;100.00
10946;BME280;5525;42.648;23.368;2022-09-09T02:04:48;94844.53;;;16.14;100.00
10946;BME280;5525;42.648;23.368;2022-09-09T02:07:28;94781.25;;;15.70;100.00
10946;BME280;5525;42.648;23.368;2022-09-09T02:10:02;94852.88;;;16.05;100.00
10946;BME280;5525;42.648;23.368;2022-09-09T02:12:32;94790.34;;;15.15;100.00
10946;BME280;5525;42.648;23.368;2022-09-09T02:15:04;94870.56;;;15.65;100.00
10946;BME280;5525;42.648;23.368;2022-09-09T02:17:36;94786.75;;;15.27;100.00
10946;BME280;5525;42.648;23.368;2022-09-09T02:20:07;94847.47;;;15.90;100.00
10946;BME280;5525;42.648;23.368;2022-09-09T02:22:37;94844.06;;;15.93;100.00
10946;BME280;5525;42.648;23.368;2022-09-09T02:25:07;94793.78;;;15.90;100.00
10946;BME280;5525;42.648;23.368;2022-09-09T02:27:35;94791.31;;;16.01;100.00
10946;BME280;5525;42.648;23.368;2022-09-09T02:30:04;94841.53;;;16.34;100.00
10946;BME280;5525;42.648;23.368;2022-09-09T02:32:32;94813.19;;;15.89;100.00
10946;BME280;5525;42.648;23.368;2022-09-09T02:35:05;94836.03;;;16.00;100.00
10946;BME280;5525;42.648;23.368;2022-09-09T02:37:37;94765.97;;;15.50;100.00
10946;BME280;5525;42.648;23.368;2022-09-09T02:40:06;94846.78;;;15.77;100.00
10946;BME280;5525;42.648;23.368;2022-09-09T02:42:38;94861.09;;;15.74;100.00
10946;BME280;5525;42.648;23.368;2022-09-09T02:45:09;94842.47;;;15.33;100.00
10946;BME280;5525;42.648;23.368;2022-09-09T02:47:39;94781.88;;;14.89;100.00
10946;BME280;5525;42.648;23.368;2022-09-09T02:50:13;94870.13;;;15.35;100.00
10946;BME280;5525;42.648;23.368;2022-09-09T02:52:57;94874.72;;;15.31;100.00
10946;BME280;5525;42.648;23.368;2022-09-09T02:55:38;94844.88;;;15.07;100.00
10946;BME280;5525;42.648;23.368;2022-09-09T02:58:08;94850.22;;;15.31;100.00
10946;BME280;5525;42.648;23.368;2022-09-09T03:00:39;94869.22;;;15.43;100.00
10946;BME280;5525;42.648;23.368;2022-09-09T03:03:07;94862.13;;;15.54;100.00
10946;BME280;5525;42.648;23.368;2022-09-09T03:05:35;94867.28;;;15.59;100.00
10946;BME280;5525;42.648;23.368;2022-09-09T03:08:02;94854.31;;;15.53;100.00
10946;BME280;5525;42.648;23.368;2022-09-09T03:10:30;94872.31;;;15.57;100.00
10946;BME280;5525;42.648;23.368;2022-09-09T03:12:57;94865.97;;;15.53;100.00
10946;BME280;5525;42.648;23.368;2022-09-09T03:15:25;94885.47;;;15.55;100.00
10946;BME280;5525;42.648;23.368;2022-09-09T03:17:56;94875.81;;;15.58;100.00
10946;BME280;5525;42.648;23.368;2022-09-09T03:20:23;94853.25;;;15.42;100.00
10946;BME280;5525;42.648;23.368;2022-09-09T03:22:51;94881.91;;;15.67;100.00
10946;BME280;5525;42.648;23.368;2022-09-09T03:25:18;94834.19;;;15.42;100.00
10946;BME280;5525;42.648;23.368;2022-09-09T03:27:45;94863.97;;;15.66;100.00
10946;BME280;5525;42.648;23.368;2022-09-09T03:30:12;94861.09;;;15.74;100.00
10946;BME280;5525;42.648;23.368;2022-09-09T03:32:39;94875.56;;;15.78;100.00
10946;BME280;5525;42.648;23.368;2022-09-09T03:35:08;94825.50;;;15.52;100.00
10946;BME280;5525;42.648;23.368;2022-09-09T03:37:35;94867.59;;;15.70;100.00
10946;BME280;5525;42.648;23.368;2022-09-09T03:40:04;94855.34;;;15.79;100.00
10946;BME280;5525;42.648;23.368;2022-09-09T03:42:32;94869.94;;;15.87;100.00
10946;BME280;5525;42.648;23.368;2022-09-09T03:44:59;94809.88;;;15.49;100.00
10946;BME280;5525;42.648;23.368;2022-09-09T03:47:26;94790.31;;;15.43;100.00
10946;BME280;5525;42.648;23.368;2022-09-09T03:49:53;94821.38;;;15.73;100.00
10946;BME280;5525;42.648;23.368;2022-09-09T03:52:21;94817.34;;;15.67;100.00
10946;BME280;5525;42.648;23.368;2022-09-09T03:54:50;94877.84;;;16.07;100.00
10946;BME280;5525;42.648;23.368;2022-09-09T03:57:18;94871.53;;;16.03;100.00
10946;BME280;5525;42.648;23.368;2022-09-09T03:59:45;94856.06;;;15.92;100.00
10946;BME280;5525;42.648;23.368;2022-09-09T04:02:12;94868.63;;;15.96;100.00
10946;BME280;5525;42.648;23.368;2022-09-09T04:04:39;94873.81;;;15.86;100.00
10946;BME280;5525;42.648;23.368;2022-09-09T04:07:06;94843.44;;;15.53;100.00
10946;BME280;5525;42.648;23.368;2022-09-09T04:09:34;94846.16;;;15.53;100.00
10946;BME280;5525;42.648;23.368;2022-09-09T04:12:02;94886.97;;;15.84;100.00
10946;BME280;5525;42.648;23.368;2022-09-09T04:14:30;94795.72;;;15.27;100.00
10946;BME280;5525;42.648;23.368;2022-09-09T04:16:57;94880.84;;;16.02;100.00
10946;BME280;5525;42.648;23.368;2022-09-09T04:19:25;94872.25;;;16.00;100.00
10946;BME280;5525;42.648;23.368;2022-09-09T04:21:53;94855.44;;;16.14;100.00
10946;BME280;5525;42.648;23.368;2022-09-09T04:24:20;94868.44;;;16.20;100.00
10946;BME280;5525;42.648;23.368;2022-09-09T04:26:50;94798.84;;;15.57;100.00
10946;BME280;5525;42.648;23.368;2022-09-09T04:29:18;94858.53;;;15.97;100.00
10946;BME280;5525;42.648;23.368;2022-09-09T04:31:45;94871.53;;;16.03;100.00
10946;BME280;5525;42.648;23.368;2022-09-09T04:34:12;94843.50;;;15.87;100.00
10946;BME280;5525;42.648;23.368;2022-09-09T04:36:39;94796.72;;;15.66;100.00
10946;BME280;5525;42.648;23.368;2022-09-09T04:39:07;94874.81;;;16.43;100.00
10946;BME280;5525;42.648;23.368;2022-09-09T04:41:34;94839.81;;;16.11;100.00
10946;BME280;5525;42.648;23.368;2022-09-09T04:44:04;94882.47;;;16.38;100.00
10946;BME280;5525;42.648;23.368;2022-09-09T04:46:31;94897.34;;;16.40;100.00
10946;BME280;5525;42.648;23.368;2022-09-09T04:49:00;94815.56;;;15.75;100.00
10946;BME280;5525;42.648;23.368;2022-09-09T04:51:27;94851.81;;;16.10;100.00
10946;BME280;5525;42.648;23.368;2022-09-09T04:53:57;94879.03;;;16.41;100.00
10946;BME280;5525;42.648;23.368;2022-09-09T04:56:24;94854.00;;;16.51;100.00
10946;BME280;5525;42.648;23.368;2022-09-09T04:58:54;94796.09;;;16.23;100.00
10946;BME280;5525;42.648;23.368;2022-09-09T05:01:23;94788.03;;;16.45;100.00
10946;BME280;5525;42.648;23.368;2022-09-09T05:03:52;94845.13;;;16.92;100.00
10946;BME280;5525;42.648;23.368;2022-09-09T05:06:35;94864.78;;;17.01;100.00
10946;BME280;5525;42.648;23.368;2022-09-09T05:09:03;94860.47;;;17.19;100.00
10946;BME280;5525;42.648;23.368;2022-09-09T05:11:32;94814.28;;;16.88;100.00
10946;BME280;5525;42.648;23.368;2022-09-09T05:14:01;94770.06;;;16.60;100.00
10946;BME280;5525;42.648;23.368;2022-09-09T05:16:30;94844.16;;;17.23;100.00
10946;BME280;5525;42.648;23.368;2022-09-09T05:18:57;94845.47;;;17.48;100.00
10946;BME280;5525;42.648;23.368;2022-09-09T05:21:24;94794.03;;;17.31;100.00
10946;BME280;5525;42.648;23.368;2022-09-09T05:23:52;94803.97;;;17.42;100.00
10946;BME280;5525;42.648;23.368;2022-09-09T05:26:20;94842.19;;;17.84;100.00
10946;BME280;5525;42.648;23.368;2022-09-09T05:28:48;94787.63;;;17.65;100.00
10946;BME280;5525;42.648;23.368;2022-09-09T05:31:17;94843.38;;;18.09;100.00
10946;BME280;5525;42.648;23.368;2022-09-09T05:33:47;94837.50;;;18.33;100.00
10946;BME280;5525;42.648;23.368;2022-09-09T05:36:17;94795.34;;;18.34;100.00
10946;BME280;5525;42.648;23.368;2022-09-09T05:38:44;94761.97;;;18.21;100.00
10946;BME280;5525;42.648;23.368;2022-09-09T05:41:13;94801.78;;;18.75;100.00
10946;BME280;5525;42.648;23.368;2022-09-09T05:43:42;94796.91;;;18.91;100.00
10946;BME280;5525;42.648;23.368;2022-09-09T05:46:11;94775.56;;;19.03;100.00
10946;BME280;5525;42.648;23.368;2022-09-09T05:48:39;94838.94;;;19.38;100.00
10946;BME280;5525;42.648;23.368;2022-09-09T05:51:10;94808.56;;;19.17;100.00
10946;BME280;5525;42.648;23.368;2022-09-09T05:53:40;94805.28;;;19.38;100.00
10946;BME280;5525;42.648;23.368;2022-09-09T05:56:09;94827.34;;;19.52;100.00
10946;BME280;5525;42.648;23.368;2022-09-09T05:58:37;94771.56;;;19.30;100.00
10946;BME280;5525;42.648;23.368;2022-09-09T06:01:11;94790.88;;;19.44;98.05
10946;BME280;5525;42.648;23.368;2022-09-09T06:03:41;94790.53;;;19.49;97.83
10946;BME280;5525;42.648;23.368;2022-09-09T06:06:12;94865.41;;;20.04;96.86
10946;BME280;5525;42.648;23.368;2022-09-09T06:08:41;94871.72;;;20.08;96.99
10946;BME280;5525;42.648;23.368;2022-09-09T06:11:11;94836.06;;;20.04;93.68
10946;BME280;5525;42.648;23.368;2022-09-09T06:13:39;94846.59;;;20.02;93.21
10946;BME280;5525;42.648;23.368;2022-09-09T06:16:08;94837.41;;;20.25;91.95
10946;BME280;5525;42.648;23.368;2022-09-09T06:18:38;94823.88;;;19.98;89.93
10946;BME280;5525;42.648;23.368;2022-09-09T06:21:08;94851.69;;;20.48;88.76
10946;BME280;5525;42.648;23.368;2022-09-09T06:23:39;94863.97;;;20.71;85.96
10946;BME280;5525;42.648;23.368;2022-09-09T06:26:10;94828.00;;;20.26;87.66
10946;BME280;5525;42.648;23.368;2022-09-09T06:28:38;94870.22;;;20.65;87.33
10946;BME280;5525;42.648;23.368;2022-09-09T06:31:07;94824.28;;;21.26;81.61
10946;BME280;5525;42.648;23.368;2022-09-09T06:33:36;94865.50;;;24.74;57.56
10946;BME280;5525;42.648;23.368;2022-09-09T06:36:07;94865.13;;;28.40;44.63
10946;BME280;5525;42.648;23.368;2022-09-09T06:38:34;94865.47;;;30.58;37.44
10946;BME280;5525;42.648;23.368;2022-09-09T06:41:03;94866.19;;;32.59;33.72
10946;BME280;5525;42.648;23.368;2022-09-09T06:43:31;94804.88;;;31.52;33.05
10946;BME280;5525;42.648;23.368;2022-09-09T06:46:01;94850.84;;;31.81;33.49
10946;BME280;5525;42.648;23.368;2022-09-09T06:48:28;94857.00;;;35.32;28.50
10946;BME280;5525;42.648;23.368;2022-09-09T06:51:04;94875.47;;;37.37;25.64
10946;BME280;5525;42.648;23.368;2022-09-09T06:53:31;94899.41;;;38.07;24.74
10946;BME280;5525;42.648;23.368;2022-09-09T06:55:59;94904.06;;;39.60;23.14
10946;BME280;5525;42.648;23.368;2022-09-09T06:58:29;94891.91;;;39.96;22.74
10946;BME280;5525;42.648;23.368;2022-09-09T07:01:02;94894.53;;;39.57;22.32
10946;BME280;5525;42.648;23.368;2022-09-09T07:03:30;94899.78;;;38.40;23.27
10946;BME280;5525;42.648;23.368;2022-09-09T07:05:57;94895.91;;;36.68;25.23
10946;BME280;5525;42.648;23.368;2022-09-09T07:08:25;94880.16;;;35.65;26.44
10946;BME280;5525;42.648;23.368;2022-09-09T07:10:52;94899.91;;;37.65;23.70
10946;BME280;5525;42.648;23.368;2022-09-09T07:13:23;94894.72;;;38.75;22.90
10946;BME280;5525;42.648;23.368;2022-09-09T07:15:52;94896.31;;;38.82;22.57
10946;BME280;5525;42.648;23.368;2022-09-09T07:18:19;94866.31;;;38.84;22.01
10946;BME280;5525;42.648;23.368;2022-09-09T07:20:53;94895.22;;;39.89;21.45
10946;BME280;5525;42.648;23.368;2022-09-09T07:23:22;94900.25;;;40.33;20.55
10946;BME280;5525;42.648;23.368;2022-09-09T07:25:49;94861.75;;;39.82;20.06
10946;BME280;5525;42.648;23.368;2022-09-09T07:28:17;94907.78;;;40.74;20.35
10946;BME280;5525;42.648;23.368;2022-09-09T07:30:55;94903.41;;;40.84;19.96
10946;BME280;5525;42.648;23.368;2022-09-09T07:33:22;94889.03;;;37.18;23.37
10946;BME280;5525;42.648;23.368;2022-09-09T07:35:50;94882.03;;;36.35;24.57
10946;BME280;5525;42.648;23.368;2022-09-09T07:38:18;94857.47;;;37.69;23.57
10946;BME280;5525;42.648;23.368;2022-09-09T07:40:48;94881.47;;;38.87;22.19
10946;BME280;5525;42.648;23.368;2022-09-09T07:43:15;94888.22;;;39.37;21.56
10946;BME280;5525;42.648;23.368;2022-09-09T07:45:44;94877.81;;;40.18;20.63
10946;BME280;5525;42.648;23.368;2022-09-09T07:48:13;94864.53;;;40.68;19.80
10946;BME280;5525;42.648;23.368;2022-09-09T07:50:43;94907.72;;;42.31;18.60
10946;BME280;5525;42.648;23.368;2022-09-09T07:53:15;94852.00;;;41.70;18.52
10946;BME280;5525;42.648;23.368;2022-09-09T07:55:42;94896.44;;;40.63;19.65
10946;BME280;5525;42.648;23.368;2022-09-09T07:58:10;94846.97;;;41.03;19.53
10946;BME280;5525;42.648;23.368;2022-09-09T08:00:37;94894.88;;;41.39;18.95
10946;BME280;5525;42.648;23.368;2022-09-09T08:03:09;94866.72;;;39.45;20.38
10946;BME280;5525;42.648;23.368;2022-09-09T08:05:37;94824.19;;;39.70;20.49
10946;BME280;5525;42.648;23.368;2022-09-09T08:08:07;94867.13;;;40.72;19.52
10946;BME280;5525;42.648;23.368;2022-09-09T08:10:35;94860.25;;;39.39;20.74
10946;BME280;5525;42.648;23.368;2022-09-09T08:13:02;94872.88;;;37.18;22.98
10946;BME280;5525;42.648;23.368;2022-09-09T08:15:31;94818.03;;;35.63;24.03
10946;BME280;5525;42.648;23.368;2022-09-09T08:17:59;94867.50;;;34.99;25.26
10946;BME280;5525;42.648;23.368;2022-09-09T08:20:28;94883.22;;;34.04;26.86
10946;BME280;5525;42.648;23.368;2022-09-09T08:22:56;94845.75;;;32.10;28.95
10946;BME280;5525;42.648;23.368;2022-09-09T08:25:24;94835.13;;;31.53;29.97
10946;BME280;5525;42.648;23.368;2022-09-09T08:27:52;94865.16;;;32.75;28.85
10946;BME280;5525;42.648;23.368;2022-09-09T08:30:19;94870.41;;;33.22;28.28
10946;BME280;5525;42.648;23.368;2022-09-09T08:32:46;94857.00;;;33.08;28.90
10946;BME280;5525;42.648;23.368;2022-09-09T08:35:16;94853.19;;;32.75;28.96
10946;BME280;5525;42.648;23.368;2022-09-09T08:37:43;94811.09;;;32.08;29.24
10946;BME280;5525;42.648;23.368;2022-09-09T08:40:19;94858.19;;;31.88;30.36
10946;BME280;5525;42.648;23.368;2022-09-09T08:42:50;94799.59;;;30.98;31.43
10946;BME280;5525;42.648;23.368;2022-09-09T08:45:29;94858.09;;;30.39;32.95
10946;BME280;5525;42.648;23.368;2022-09-09T08:48:12;94849.63;;;30.67;32.50
10946;BME280;5525;42.648;23.368;2022-09-09T08:50:42;94848.84;;;30.17;33.53
10946;BME280;5525;42.648;23.368;2022-09-09T08:53:16;94819.53;;;30.12;32.85
10946;BME280;5525;42.648;23.368;2022-09-09T08:55:48;94788.88;;;29.87;33.30
10946;BME280;5525;42.648;23.368;2022-09-09T08:58:18;94786.63;;;30.45;32.32
10946;BME280;5525;42.648;23.368;2022-09-09T09:01:02;94846.47;;;31.25;32.22
10946;BME280;5525;42.648;23.368;2022-09-09T09:03:41;94802.97;;;31.70;31.19
10946;BME280;5525;42.648;23.368;2022-09-09T09:06:24;94850.31;;;32.47;30.78
10946;BME280;5525;42.648;23.368;2022-09-09T09:09:01;94802.88;;;32.04;30.79
10946;BME280;5525;42.648;23.368;2022-09-09T09:11:36;94807.97;;;32.85;29.45
10946;BME280;5525;42.648;23.368;2022-09-09T09:14:09;94834.66;;;33.26;29.25
10946;BME280;5525;42.648;23.368;2022-09-09T09:16:45;94848.81;;;33.94;28.66
10946;BME280;5525;42.648;23.368;2022-09-09T09:19:16;94841.81;;;33.18;29.04
10946;BME280;5525;42.648;23.368;2022-09-09T09:21:47;94856.50;;;32.42;30.27
10946;BME280;5525;42.648;23.368;2022-09-09T09:24:18;94829.72;;;31.80;31.23
10946;BME280;5525;42.648;23.368;2022-09-09T09:26:48;94818.94;;;31.14;32.67
10946;BME280;5525;42.648;23.368;2022-09-09T09:29:17;94765.53;;;31.03;32.01
10946;BME280;5525;42.648;23.368;2022-09-09T09:31:48;94841.31;;;31.36;32.17
10946;BME280;5525;42.648;23.368;2022-09-09T09:34:18;94841.63;;;31.03;33.51
10946;BME280;5525;42.648;23.368;2022-09-09T09:36:51;94832.44;;;30.19;33.99
10946;BME280;5525;42.648;23.368;2022-09-09T09:39:23;94802.47;;;30.10;33.88
10946;BME280;5525;42.648;23.368;2022-09-09T09:41:53;94809.63;;;30.49;33.62
10946;BME280;5525;42.648;23.368;2022-09-09T09:44:24;94787.72;;;31.41;32.68
10946;BME280;5525;42.648;23.368;2022-09-09T09:47:04;94783.91;;;32.88;30.60
10946;BME280;5525;42.648;23.368;2022-09-09T09:49:32;94760.41;;;35.29;26.69
10946;BME280;5525;42.648;23.368;2022-09-09T09:52:00;94792.38;;;36.57;24.98
10946;BME280;5525;42.648;23.368;2022-09-09T09:54:29;94773.34;;;35.36;26.43
10946;BME280;5525;42.648;23.368;2022-09-09T09:57:09;94823.72;;;34.60;27.39
10946;BME280;5525;42.648;23.368;2022-09-09T09:59:41;94815.34;;;33.82;28.42
10946;BME280;5525;42.648;23.368;2022-09-09T10:02:16;94802.84;;;32.84;29.93
10946;BME280;5525;42.648;23.368;2022-09-09T10:04:43;94739.72;;;32.55;30.39
10946;BME280;5525;42.648;23.368;2022-09-09T10:07:20;94749.66;;;33.83;28.30
10946;BME280;5525;42.648;23.368;2022-09-09T10:09:51;94800.44;;;33.31;29.88
10946;BME280;5525;42.648;23.368;2022-09-09T10:12:30;94757.88;;;31.81;30.95
10946;BME280;5525;42.648;23.368;2022-09-09T10:15:05;94831.13;;;30.61;33.88
10946;BME280;5525;42.648;23.368;2022-09-09T10:17:47;94797.09;;;29.66;34.79
10946;BME280;5525;42.648;23.368;2022-09-09T10:20:30;94745.78;;;28.52;36.52
10946;BME280;5525;42.648;23.368;2022-09-09T10:23:09;94772.56;;;28.27;37.91
10946;BME280;5525;42.648;23.368;2022-09-09T10:26:01;94815.28;;;28.65;37.88
10946;BME280;5525;42.648;23.368;2022-09-09T10:31:38;94774.72;;;27.87;39.39
10946;BME280;5525;42.648;23.368;2022-09-09T10:34:18;94803.31;;;28.20;39.39
10946;BME280;5525;42.648;23.368;2022-09-09T10:36:50;94829.97;;;28.33;39.69
10946;BME280;5525;42.648;23.368;2022-09-09T10:39:28;94794.25;;;28.16;39.70
10946;BME280;5525;42.648;23.368;2022-09-09T10:42:03;94755.16;;;27.74;40.06
10946;BME280;5525;42.648;23.368;2022-09-09T10:44:55;94799.31;;;27.85;40.69
10946;BME280;5525;42.648;23.368;2022-09-09T10:47:41;94746.47;;;27.17;41.60
10946;BME280;5525;42.648;23.368;2022-09-09T10:50:42;94799.38;;;27.26;42.20
10946;BME280;5525;42.648;23.368;2022-09-09T10:53:20;94801.50;;;26.99;42.57
10946;BME280;5525;42.648;23.368;2022-09-09T10:55:53;94821.28;;;27.60;42.16
10946;BME280;5525;42.648;23.368;2022-09-09T10:58:30;94827.38;;;27.71;41.63
10946;BME280;5525;42.648;23.368;2022-09-09T11:01:13;94816.75;;;28.21;40.25
10946;BME280;5525;42.648;23.368;2022-09-09T11:03:43;94820.31;;;28.06;40.27
10946;BME280;5525;42.648;23.368;2022-09-09T11:06:19;94825.84;;;28.06;40.50
10946;BME280;5525;42.648;23.368;2022-09-09T11:08:48;94799.09;;;27.60;41.05
10946;BME280;5525;42.648;23.368;2022-09-09T11:11:22;94765.81;;;27.40;41.58
10946;BME280;5525;42.648;23.368;2022-09-09T11:13:57;94826.06;;;27.40;42.52
10946;BME280;5525;42.648;23.368;2022-09-09T11:16:31;94828.75;;;27.43;43.25
10946;BME280;5525;42.648;23.368;2022-09-09T11:19:13;94831.84;;;27.06;45.38
10946;BME280;5525;42.648;23.368;2022-09-09T11:21:52;94826.19;;;27.33;44.83
10946;BME280;5525;42.648;23.368;2022-09-09T11:24:23;94767.66;;;27.08;43.65
10946;BME280;5525;42.648;23.368;2022-09-09T11:26:57;94782.75;;;27.46;42.48
10946;BME280;5525;42.648;23.368;2022-09-09T11:30:03;94799.94;;;28.12;41.38
10946;BME280;5525;42.648;23.368;2022-09-09T11:33:07;94797.75;;;28.68;39.96
10946;BME280;5525;42.648;23.368;2022-09-09T11:35:46;94783.69;;;28.43;40.49
10946;BME280;5525;42.648;23.368;2022-09-09T11:38:26;94782.72;;;28.81;40.22
10946;BME280;5525;42.648;23.368;2022-09-09T11:40:59;94753.13;;;28.43;40.86
10946;BME280;5525;42.648;23.368;2022-09-09T11:43:30;94780.56;;;28.09;42.04
10946;BME280;5525;42.648;23.368;2022-09-09T11:46:00;94724.78;;;26.93;43.71
10946;BME280;5525;42.648;23.368;2022-09-09T11:48:32;94691.97;;;27.11;43.46
10946;BME280;5525;42.648;23.368;2022-09-09T11:51:05;94757.50;;;27.76;43.47
10946;BME280;5525;42.648;23.368;2022-09-09T11:53:33;94744.88;;;27.91;43.12
10946;BME280;5525;42.648;23.368;2022-09-09T11:56:09;94690.97;;;27.72;42.88
10946;BME280;5525;42.648;23.368;2022-09-09T11:58:41;94728.06;;;27.98;42.68
10946;BME280;5525;42.648;23.368;2022-09-09T12:01:37;94731.13;;;27.68;43.65
10946;BME280;5525;42.648;23.368;2022-09-09T12:07:34;94688.09;;;27.44;43.29
10946;BME280;5525;42.648;23.368;2022-09-09T12:10:05;94758.09;;;28.35;42.28
10946;BME280;5525;42.648;23.368;2022-09-09T12:12:35;94721.13;;;28.38;42.04
10946;BME280;5525;42.648;23.368;2022-09-09T12:15:21;94697.59;;;28.27;41.44
10946;BME280;5525;42.648;23.368;2022-09-09T12:17:55;94706.78;;;28.40;41.49
10946;BME280;5525;42.648;23.368;2022-09-09T12:23:14;94684.00;;;28.61;40.91
10946;BME280;5525;42.648;23.368;2022-09-09T12:25:59;94697.78;;;29.09;40.20
10946;BME280;5525;42.648;23.368;2022-09-09T12:28:41;94730.91;;;29.57;39.60
10946;BME280;5525;42.648;23.368;2022-09-09T12:31:16;94670.09;;;28.89;39.83
10946;BME280;5525;42.648;23.368;2022-09-09T12:33:47;94654.16;;;28.77;40.22
10946;BME280;5525;42.648;23.368;2022-09-09T12:36:17;94713.66;;;29.62;39.73
10946;BME280;5525;42.648;23.368;2022-09-09T12:38:48;94685.41;;;29.64;39.36
10946;BME280;5525;42.648;23.368;2022-09-09T12:41:20;94703.09;;;28.75;41.75
10946;BME280;5525;42.648;23.368;2022-09-09T12:43:48;94675.00;;;28.57;41.54
10946;BME280;5525;42.648;23.368;2022-09-09T12:46:22;94698.50;;;28.97;40.36
10946;BME280;5525;42.648;23.368;2022-09-09T12:48:52;94701.59;;;29.27;40.37
10946;BME280;5525;42.648;23.368;2022-09-09T12:51:25;94689.00;;;29.10;40.24
10946;BME280;5525;42.648;23.368;2022-09-09T12:53:55;94687.81;;;28.95;39.99
10946;BME280;5525;42.648;23.368;2022-09-09T12:56:24;94700.59;;;29.34;39.89
10946;BME280;5525;42.648;23.368;2022-09-09T12:58:55;94697.66;;;29.12;40.20
10946;BME280;5525;42.648;23.368;2022-09-09T13:01:26;94660.53;;;29.19;39.62
10946;BME280;5525;42.648;23.368;2022-09-09T13:03:54;94682.16;;;29.65;39.50
10946;BME280;5525;42.648;23.368;2022-09-09T13:06:23;94682.28;;;29.99;38.51
10946;BME280;5525;42.648;23.368;2022-09-09T13:08:52;94641.72;;;29.98;37.76
10946;BME280;5525;42.648;23.368;2022-09-09T13:11:23;94684.84;;;30.53;37.69
10946;BME280;5525;42.648;23.368;2022-09-09T13:13:53;94661.88;;;30.02;38.28
10946;BME280;5525;42.648;23.368;2022-09-09T13:16:22;94674.69;;;30.12;37.70
10946;BME280;5525;42.648;23.368;2022-09-09T13:18:52;94622.81;;;29.93;37.93
10946;BME280;5525;42.648;23.368;2022-09-09T13:21:31;94637.25;;;30.13;37.37
10946;BME280;5525;42.648;23.368;2022-09-09T13:23:58;94671.94;;;30.46;38.25
10946;BME280;5525;42.648;23.368;2022-09-09T13:26:30;94672.09;;;30.30;38.01
10946;BME280;5525;42.648;23.368;2022-09-09T13:29:13;94628.47;;;30.02;37.81